createdAt,value
2022-11-05T00:02:21.791Z,95.85
2022-11-05T00:05:31.552Z,96.63
2022-11-05T00:08:47.835Z,96.08
2022-11-05T00:11:57.790Z,95.89
2022-11-05T00:15:06.612Z,96.79
2022-11-05T00:18:14.801Z,96.75
2022-11-05T00:21:23.358Z,97.16
2022-11-05T00:24:31.798Z,97.09
2022-11-05T00:27:41.028Z,96.40
2022-11-05T00:30:49.802Z,96.04
2022-11-05T00:34:04.864Z,96.39
2022-11-05T00:37:06.662Z,96.45
2022-11-05T00:40:21.829Z,96.76
2022-11-05T00:43:36.882Z,96.50
2022-11-05T00:46:38.622Z,96.90
2022-11-05T00:49:53.817Z,97.00
2022-11-05T00:53:01.754Z,96.87
2022-11-05T00:56:17.802Z,97.12
2022-11-05T00:59:26.829Z,96.61
2022-11-05T01:02:35.597Z,96.74
2022-11-05T01:05:47.862Z,96.57
2022-11-05T01:08:56.429Z,96.38
2022-11-05T01:12:04.935Z,97.04
2022-11-05T01:15:13.730Z,96.69
2022-11-05T01:18:21.964Z,96.73
2022-11-05T01:21:37.832Z,97.28
2022-11-05T01:24:45.831Z,97.01
2022-11-05T01:27:54.413Z,96.46
2022-11-05T01:31:08.846Z,97.25
2022-11-05T01:34:10.516Z,96.97
2022-11-05T01:37:24.947Z,97.33
2022-11-05T01:40:26.794Z,97.24
2022-11-05T01:43:55.932Z,96.38
2022-11-05T01:47:03.834Z,96.91
2022-11-05T01:50:27.304Z,96.54
2022-11-05T01:53:50.866Z,96.21
2022-11-05T01:57:04.965Z,96.96
2022-11-05T02:00:20.856Z,96.73
2022-11-05T02:03:23.788Z,96.97
2022-11-05T02:06:42.824Z,97.10
2022-11-05T02:10:05.848Z,96.66
2022-11-05T02:13:13.865Z,96.60
2022-11-05T02:16:48.910Z,96.73
2022-11-05T02:20:11.131Z,96.84
2022-11-05T02:23:49.851Z,96.85
2022-11-05T02:27:13.837Z,96.31
2022-11-05T02:30:37.041Z,97.18
2022-11-05T02:33:54.887Z,97.12
2022-11-05T02:37:25.284Z,97.07
2022-11-05T02:40:51.881Z,96.46
2022-11-05T02:44:45.902Z,96.24
2022-11-05T02:48:30.926Z,97.59
2022-11-05T02:51:58.880Z,97.32
2022-11-05T02:55:28.118Z,97.22
2022-11-05T02:58:36.505Z,96.93
2022-11-05T03:01:47.049Z,97.76
2022-11-05T03:05:01.892Z,97.32
2022-11-05T03:08:18.088Z,97.32
2022-11-05T03:11:36.934Z,96.98
2022-11-05T03:14:49.739Z,96.67
2022-11-05T03:18:28.101Z,97.46
2022-11-05T03:21:51.064Z,97.76
2022-11-05T03:25:03.878Z,96.67
2022-11-05T03:28:14.857Z,96.77
2022-11-05T03:31:24.902Z,97.95
2022-11-05T03:34:53.904Z,97.26
2022-11-05T03:38:18.947Z,97.82
2022-11-05T03:41:29.381Z,97.83
2022-11-05T03:44:40.901Z,96.91
2022-11-05T03:47:55.173Z,96.75
2022-11-05T03:51:23.953Z,97.40
2022-11-05T03:54:45.897Z,97.44
2022-11-05T03:57:51.324Z,96.62
2022-11-05T04:01:07.925Z,97.34
2022-11-05T04:04:16.896Z,96.46
2022-11-05T04:07:31.905Z,95.62
2022-11-05T04:10:40.917Z,96.62
2022-11-05T04:13:49.435Z,95.90
2022-11-05T04:16:57.953Z,96.41
2022-11-05T04:20:06.823Z,96.38
2022-11-05T04:23:16.936Z,95.97
2022-11-05T04:26:25.597Z,95.68
2022-11-05T04:29:33.929Z,95.49
2022-11-05T04:32:42.593Z,96.12
2022-11-05T04:35:56.910Z,96.55
2022-11-05T04:38:58.835Z,96.09
2022-11-05T04:42:13.938Z,95.61
2022-11-05T04:45:21.904Z,95.76
2022-11-05T04:48:30.561Z,95.39
2022-11-05T04:51:38.894Z,95.10
2022-11-05T04:54:54.188Z,95.00
2022-11-05T04:58:10.949Z,95.51
2022-11-05T05:01:22.612Z,94.19
2022-11-05T05:04:30.906Z,95.20
2022-11-05T05:07:40.636Z,95.20
2022-11-05T05:10:48.933Z,94.97
2022-11-05T05:13:57.658Z,94.90
2022-11-05T05:17:05.956Z,94.97
2022-11-05T05:20:15.422Z,94.73
2022-11-05T05:23:24.029Z,94.03
2022-11-05T05:26:32.480Z,94.86
2022-11-05T05:29:40.953Z,94.26
2022-11-05T05:32:49.703Z,94.33
2022-11-05T05:35:57.966Z,94.57
2022-11-05T05:39:08.210Z,94.14
2022-11-05T05:42:22.986Z,94.27
2022-11-05T05:45:24.817Z,93.87
2022-11-05T05:48:40.916Z,93.46
2022-11-05T05:51:57.950Z,93.86
2022-11-05T05:55:19.937Z,93.82
2022-11-05T05:58:23.164Z,94.15
2022-11-05T06:01:38.101Z,94.19
2022-11-05T06:04:46.975Z,92.86
2022-11-05T06:08:02.975Z,93.54
2022-11-05T06:11:05.863Z,93.79
2022-11-05T06:14:20.943Z,93.65
2022-11-05T06:17:22.683Z,93.08
2022-11-05T06:20:36.954Z,92.37
2022-11-05T06:23:40.935Z,92.34
2022-11-05T06:26:56.010Z,92.28
2022-11-05T06:30:05.053Z,92.87
2022-11-05T06:33:20.001Z,92.29
2022-11-05T06:36:34.970Z,93.18
2022-11-05T06:39:36.701Z,92.69
2022-11-05T06:42:50.968Z,93.07
2022-11-05T06:45:59.025Z,93.22
2022-11-05T06:49:07.729Z,93.36
2022-11-05T06:52:15.953Z,93.75
2022-11-05T06:55:37.943Z,93.89
2022-11-05T06:58:46.051Z,93.85
2022-11-05T07:02:01.115Z,94.16
2022-11-05T07:05:10.032Z,92.84
2022-11-05T07:08:18.691Z,92.91
2022-11-05T07:11:27.022Z,93.03
2022-11-05T07:14:35.948Z,92.81
2022-11-05T07:17:45.067Z,92.28
2022-11-05T07:20:53.909Z,92.61
2022-11-05T07:24:02.036Z,92.43
2022-11-05T07:27:16.979Z,92.07
2022-11-05T07:30:25.817Z,91.48
2022-11-05T07:33:36.715Z,92.09
2022-11-05T07:36:45.615Z,91.68
2022-11-05T07:39:53.998Z,92.34
2022-11-05T07:43:09.383Z,91.62
2022-11-05T07:46:13.900Z,91.62
2022-11-05T07:49:29.010Z,91.07
2022-11-05T07:52:32.498Z,90.23
2022-11-05T07:55:53.998Z,89.87
2022-11-05T07:59:02.789Z,89.79
2022-11-05T08:02:11.291Z,89.49
2022-11-05T08:05:19.590Z,88.92
2022-11-05T08:08:28.066Z,89.81
2022-11-05T08:11:43.093Z,89.37
2022-11-05T08:14:44.927Z,88.78
2022-11-05T08:18:06.406Z,87.79
2022-11-05T08:21:08.257Z,88.16
2022-11-05T08:24:23.016Z,87.95
2022-11-05T08:27:24.902Z,88.72
2022-11-05T08:30:42.027Z,87.93
2022-11-05T08:33:44.076Z,86.27
2022-11-05T08:36:59.006Z,86.69
2022-11-05T08:40:00.785Z,85.82
2022-11-05T08:43:18.023Z,85.32
2022-11-05T08:46:36.491Z,84.80
2022-11-05T08:49:49.143Z,84.73
2022-11-05T08:52:57.000Z,84.94
2022-11-05T08:56:19.042Z,83.16
2022-11-05T08:59:27.090Z,84.21
2022-11-05T09:02:42.165Z,84.48
2022-11-05T09:05:51.440Z,84.13
2022-11-05T09:08:59.881Z,83.57
2022-11-05T09:12:12.924Z,84.03
2022-11-05T09:15:21.674Z,83.67
2022-11-05T09:18:36.008Z,83.67
2022-11-05T09:21:37.763Z,83.70
2022-11-05T09:24:52.047Z,83.22
2022-11-05T09:28:16.169Z,83.09
2022-11-05T09:31:24.993Z,83.23
2022-11-05T09:34:40.063Z,82.78
2022-11-05T09:37:41.815Z,82.02
2022-11-05T09:41:07.042Z,81.84
2022-11-05T09:44:20.476Z,81.58
2022-11-05T09:47:36.112Z,81.84
2022-11-05T09:50:46.382Z,81.25
2022-11-05T09:53:56.054Z,81.50
2022-11-05T09:57:17.085Z,80.87
2022-11-05T10:00:26.050Z,81.38
2022-11-05T10:03:50.061Z,81.11
2022-11-05T10:06:56.659Z,80.70
2022-11-05T10:10:16.122Z,80.20
2022-11-05T10:13:37.899Z,79.19
2022-11-05T10:17:00.071Z,78.37
2022-11-05T10:20:21.196Z,78.28
2022-11-05T10:23:29.881Z,78.30
2022-11-05T10:26:38.121Z,78.12
2022-11-05T10:29:48.194Z,78.48
2022-11-05T10:33:02.072Z,77.86
2022-11-05T10:36:16.682Z,77.61
2022-11-05T10:39:26.294Z,78.18
2022-11-05T10:43:01.126Z,79.34
2022-11-05T10:46:29.102Z,79.15
2022-11-05T10:49:59.006Z,78.28
2022-11-05T10:53:18.078Z,78.82
2022-11-05T10:56:43.096Z,78.64
2022-11-05T10:59:44.836Z,78.31
2022-11-05T11:03:06.079Z,77.86
2022-11-05T11:06:27.688Z,77.55
2022-11-05T11:09:43.114Z,76.37
2022-11-05T11:12:51.079Z,75.44
2022-11-05T11:16:15.755Z,75.19
2022-11-05T11:19:37.158Z,75.60
2022-11-05T11:23:23.194Z,74.57
2022-11-05T11:26:28.881Z,74.99
2022-11-05T11:29:49.361Z,73.64
2022-11-05T11:33:06.341Z,72.65
2022-11-05T11:36:17.169Z,71.20
2022-11-05T11:39:36.120Z,69.87
2022-11-05T11:42:47.111Z,69.26
2022-11-05T11:46:07.790Z,71.02
2022-11-05T11:49:40.173Z,72.24
2022-11-05T11:52:55.100Z,72.79
2022-11-05T11:56:14.163Z,72.38
2022-11-05T12:00:06.510Z,71.86
2022-11-05T12:03:23.849Z,72.04
2022-11-05T12:06:54.125Z,73.93
2022-11-05T12:10:20.645Z,73.47
2022-11-05T12:13:56.163Z,73.02
2022-11-05T12:17:27.193Z,73.16
2022-11-05T12:20:48.482Z,73.54
2022-11-05T12:24:24.131Z,73.73
2022-11-05T12:27:41.934Z,74.75
2022-11-05T12:31:12.157Z,74.50
2022-11-05T12:34:42.289Z,75.21
2022-11-05T12:38:17.126Z,74.40
2022-11-05T12:41:34.175Z,74.77
2022-11-05T12:44:59.041Z,74.75
2022-11-05T12:48:39.211Z,74.56
2022-11-05T12:52:17.452Z,75.09
2022-11-05T12:55:38.157Z,74.84
2022-11-05T12:58:52.155Z,75.28
2022-11-05T13:02:20.280Z,75.54
2022-11-05T13:05:43.133Z,75.39
2022-11-05T13:09:01.790Z,75.66
2022-11-05T13:12:17.147Z,76.04
2022-11-05T13:15:30.591Z,76.00
2022-11-05T13:18:50.155Z,75.12
2022-11-05T13:22:11.370Z,75.87
2022-11-05T13:25:26.159Z,76.73
2022-11-05T13:28:52.447Z,76.19
2022-11-05T13:32:09.186Z,75.53
2022-11-05T13:35:25.921Z,76.07
2022-11-05T13:38:34.175Z,76.50
2022-11-05T13:42:22.739Z,76.37
2022-11-05T13:45:52.175Z,76.53
2022-11-05T13:49:37.232Z,75.83
2022-11-05T13:53:06.171Z,76.02
2022-11-05T13:56:37.318Z,75.90
2022-11-05T14:00:18.199Z,76.37
2022-11-05T14:03:28.195Z,76.43
2022-11-05T14:06:44.230Z,76.66
2022-11-05T14:09:59.204Z,77.22
2022-11-05T14:13:28.201Z,77.06
2022-11-05T14:16:57.195Z,76.97
2022-11-05T14:20:09.750Z,77.30
2022-11-05T14:23:48.210Z,76.91
2022-11-05T14:27:40.269Z,77.02
2022-11-05T14:30:52.224Z,76.73
2022-11-05T14:34:27.291Z,76.96
2022-11-05T14:37:39.420Z,76.88
2022-11-05T14:41:05.282Z,77.07
2022-11-05T14:44:18.202Z,76.87
2022-11-05T14:47:32.169Z,76.24
2022-11-05T14:50:53.272Z,76.50
2022-11-05T14:54:11.212Z,76.39
2022-11-05T14:58:03.453Z,76.67
2022-11-05T15:01:16.306Z,76.46
2022-11-05T15:04:35.234Z,76.32
2022-11-05T15:07:45.288Z,76.59
2022-11-05T15:11:09.054Z,76.25
2022-11-05T15:14:29.215Z,76.37
2022-11-05T15:17:51.407Z,76.42
2022-11-05T15:21:03.491Z,76.49
2022-11-05T15:24:22.263Z,76.49
2022-11-05T15:27:45.270Z,77.33
2022-11-05T15:31:13.235Z,78.88
2022-11-05T15:34:36.242Z,79.32
2022-11-05T15:37:52.380Z,79.80
2022-11-05T15:41:22.226Z,80.84
2022-11-05T15:44:27.313Z,80.60
2022-11-05T15:47:42.217Z,80.85
2022-11-05T15:50:51.273Z,80.43
2022-11-05T15:54:29.204Z,79.89
2022-11-05T15:57:50.251Z,79.36
2022-11-05T16:01:02.275Z,79.28
2022-11-05T16:04:22.597Z,78.85
2022-11-05T16:07:31.289Z,77.77
2022-11-05T16:10:47.686Z,78.01
2022-11-05T16:13:56.263Z,77.88
2022-11-05T16:17:25.261Z,77.87
2022-11-05T16:20:32.404Z,78.87
2022-11-05T16:23:59.293Z,79.05
2022-11-05T16:27:19.401Z,78.67
2022-11-05T16:30:32.558Z,80.04
2022-11-05T16:33:45.210Z,80.54
2022-11-05T16:37:02.307Z,80.34
2022-11-05T16:40:21.260Z,81.53
2022-11-05T16:43:25.213Z,82.33
2022-11-05T16:46:51.254Z,82.51
2022-11-05T16:50:00.827Z,84.03
2022-11-05T16:53:09.257Z,83.69
2022-11-05T16:56:24.785Z,84.59
2022-11-05T16:59:35.311Z,85.23
2022-11-05T17:02:51.528Z,85.11
2022-11-05T17:05:53.631Z,86.46
2022-11-05T17:09:08.316Z,86.14
2022-11-05T17:12:14.160Z,87.17
2022-11-05T17:15:35.292Z,87.80
2022-11-05T17:18:38.301Z,88.34
2022-11-05T17:21:57.308Z,88.71
2022-11-05T17:25:13.285Z,89.17
2022-11-05T17:28:22.569Z,88.35
2022-11-05T17:31:31.286Z,88.74
2022-11-05T17:34:40.235Z,87.42
2022-11-05T17:37:49.421Z,88.01
2022-11-05T17:40:58.160Z,88.22
2022-11-05T17:44:06.303Z,89.26
2022-11-05T17:47:15.119Z,89.29
2022-11-05T17:50:24.329Z,90.07
2022-11-05T17:53:33.726Z,89.50
2022-11-05T17:56:49.326Z,90.48
2022-11-05T17:59:58.269Z,90.64
2022-11-05T18:03:07.316Z,91.20
2022-11-05T18:06:23.291Z,90.34
2022-11-05T18:09:32.289Z,91.17
2022-11-05T18:12:48.337Z,91.66
2022-11-05T18:15:59.298Z,92.07
2022-11-05T18:19:08.107Z,92.11
2022-11-05T18:22:16.327Z,92.18
2022-11-05T18:25:32.322Z,92.70
2022-11-05T18:28:34.390Z,92.68
2022-11-05T18:31:50.417Z,93.61
2022-11-05T18:34:52.512Z,93.64
2022-11-05T18:38:07.353Z,93.77
2022-11-05T18:41:09.629Z,94.36
2022-11-05T18:44:24.318Z,94.70
2022-11-05T18:47:33.341Z,94.68
2022-11-05T18:50:42.258Z,95.06
2022-11-05T18:53:51.348Z,94.73
2022-11-05T18:57:06.612Z,95.23
2022-11-05T19:00:17.350Z,95.50
2022-11-05T19:03:26.591Z,95.71
2022-11-05T19:06:35.354Z,96.27
2022-11-05T19:09:50.333Z,96.46
2022-11-05T19:12:56.328Z,97.21
2022-11-05T19:16:15.345Z,96.47
2022-11-05T19:19:18.834Z,96.90
2022-11-05T19:22:34.332Z,97.73
2022-11-05T19:25:37.831Z,97.19
2022-11-05T19:28:53.329Z,96.99
2022-11-05T19:32:03.383Z,97.80
2022-11-05T19:35:18.321Z,98.70
2022-11-05T19:38:27.366Z,98.84
2022-11-05T19:41:42.339Z,98.96
2022-11-05T19:44:45.692Z,98.09
2022-11-05T19:48:01.345Z,97.76
2022-11-05T19:51:10.580Z,98.03
2022-11-05T19:54:26.386Z,98.28
2022-11-05T19:57:48.387Z,97.46
2022-11-05T20:00:57.429Z,98.10
2022-11-05T20:04:06.573Z,97.71
2022-11-05T20:07:15.503Z,98.32
2022-11-05T20:10:25.415Z,99.02
2022-11-05T20:13:35.066Z,99.08
2022-11-05T20:16:45.325Z,99.19
2022-11-05T20:20:01.374Z,98.85
2022-11-05T20:23:11.542Z,98.41
2022-11-05T20:26:27.387Z,98.63
2022-11-05T20:29:35.402Z,98.85
2022-11-05T20:32:50.386Z,99.04
2022-11-05T20:35:52.520Z,99.46
2022-11-05T20:39:07.390Z,99.67
2022-11-05T20:42:22.366Z,100.00
2022-11-05T20:45:25.646Z,99.62
2022-11-05T20:48:42.395Z,99.78
2022-11-05T20:51:44.427Z,99.84
2022-11-05T20:55:00.406Z,100.00
2022-11-05T20:58:15.690Z,100.00
2022-11-05T21:01:26.153Z,99.53
2022-11-05T21:04:41.416Z,98.92
2022-11-05T21:07:44.047Z,98.96
2022-11-05T21:10:58.403Z,99.35
2022-11-05T21:14:07.155Z,98.99
2022-11-05T21:17:17.454Z,98.80
2022-11-05T21:20:34.417Z,99.18
2022-11-05T21:23:36.491Z,99.35
2022-11-05T21:26:51.408Z,99.33
2022-11-05T21:30:00.404Z,98.92
2022-11-05T21:33:15.406Z,98.57
2022-11-05T21:36:33.419Z,98.49
2022-11-05T21:39:42.220Z,98.52
2022-11-05T21:42:50.434Z,98.67
2022-11-05T21:46:01.788Z,98.89
2022-11-05T21:49:10.421Z,99.34
2022-11-05T21:52:19.001Z,99.58
2022-11-05T21:55:27.419Z,99.23
2022-11-05T21:58:36.029Z,99.10
2022-11-05T22:01:44.558Z,98.99
2022-11-05T22:04:54.818Z,98.45
2022-11-05T22:08:09.670Z,98.81
2022-11-05T22:11:18.429Z,98.99
2022-11-05T22:14:27.203Z,98.75
2022-11-05T22:17:35.431Z,99.08
2022-11-05T22:20:50.425Z,99.11
2022-11-05T22:23:53.042Z,98.80
2022-11-05T22:27:09.427Z,99.14
2022-11-05T22:30:19.470Z,99.27
2022-11-05T22:33:34.408Z,99.05
2022-11-05T22:36:36.225Z,98.83
2022-11-05T22:39:51.421Z,98.20
2022-11-05T22:42:59.452Z,98.07
2022-11-05T22:46:17.197Z,98.48
2022-11-05T22:49:26.430Z,98.79
2022-11-05T22:52:35.154Z,98.04
2022-11-05T22:55:46.451Z,98.66
2022-11-05T22:59:02.294Z,98.37
2022-11-05T23:02:10.606Z,98.45
2022-11-05T23:05:26.443Z,98.08
2022-11-05T23:08:34.488Z,98.38
2022-11-05T23:11:47.258Z,98.29
2022-11-05T23:14:55.490Z,98.00
2022-11-05T23:18:04.370Z,98.66
2022-11-05T23:21:23.023Z,98.22
2022-11-05T23:24:32.030Z,98.35
2022-11-05T23:27:42.476Z,97.95
2022-11-05T23:30:51.294Z,97.77
2022-11-05T23:33:59.454Z,97.74
2022-11-05T23:37:15.478Z,97.97
2022-11-05T23:40:27.377Z,98.22
2022-11-05T23:43:35.455Z,98.72
2022-11-05T23:46:44.038Z,99.15
2022-11-05T23:49:52.473Z,99.60
2022-11-05T23:53:07.491Z,99.12
2022-11-05T23:56:16.314Z,98.83
2022-11-05T23:59:31.470Z,98.73
